createdAt,value
2022-10-13T00:01:42.018Z,101963.09
2022-10-13T00:04:08.418Z,101968.41
2022-10-13T00:06:34.928Z,101959.91
2022-10-13T00:09:01.402Z,101959.25
2022-10-13T00:11:29.648Z,101953.81
2022-10-13T00:13:59.211Z,101954.00
2022-10-13T00:16:26.939Z,101950.50
2022-10-13T00:18:53.729Z,101949.19
2022-10-13T00:21:23.377Z,101952.72
2022-10-13T00:23:50.945Z,101947.94
2022-10-13T00:26:18.207Z,101948.41
2022-10-13T00:28:49.754Z,101947.78
2022-10-13T00:31:26.991Z,101942.47
2022-10-13T00:33:53.873Z,101946.63
2022-10-13T00:36:22.352Z,101931.25
2022-10-13T00:38:49.310Z,101940.41
2022-10-13T00:41:16.143Z,101939.75
2022-10-13T00:44:01.335Z,101933.03
2022-10-13T00:46:35.725Z,101945.78
2022-10-13T00:49:06.574Z,101943.69
2022-10-13T00:51:38.243Z,101940.03
2022-10-13T00:54:06.939Z,101940.19
2022-10-13T00:56:34.835Z,101942.44
2022-10-13T00:59:02.545Z,101942.75
2022-10-13T01:01:29.033Z,101945.47
2022-10-13T01:03:55.442Z,101943.09
2022-10-13T01:06:23.877Z,101944.19
2022-10-13T01:08:50.686Z,101936.47
2022-10-13T01:11:43.708Z,101934.72
2022-10-13T01:14:36.519Z,101937.25
2022-10-13T01:17:24.575Z,101932.16
2022-10-13T01:20:45.057Z,101926.22
2022-10-13T01:23:14.421Z,101933.13
2022-10-13T01:25:54.316Z,101931.81
2022-10-13T01:28:39.516Z,101922.88
2022-10-13T01:31:20.374Z,101927.78
2022-10-13T01:34:04.122Z,101931.13
2022-10-13T01:36:44.877Z,101933.97
2022-10-13T01:39:33.822Z,101930.28
2022-10-13T01:42:27.665Z,101923.59
2022-10-13T01:45:00.203Z,101928.03
2022-10-13T01:47:28.857Z,101917.63
2022-10-13T01:49:57.197Z,101921.16
2022-10-13T01:52:27.754Z,101915.84
2022-10-13T01:54:54.580Z,101919.03
2022-10-13T01:57:47.261Z,101915.19
2022-10-13T02:00:17.820Z,101912.63
2022-10-13T02:03:09.313Z,101912.75
2022-10-13T02:05:38.915Z,101911.28
2022-10-13T02:08:14.542Z,101901.69
2022-10-13T02:10:48.759Z,101898.47
2022-10-13T02:13:19.619Z,101886.78
2022-10-13T02:15:49.274Z,101880.56
2022-10-13T02:18:20.264Z,101890.66
2022-10-13T02:20:47.766Z,101880.44
2022-10-13T02:23:16.845Z,101871.94
2022-10-13T02:25:44.394Z,101875.13
2022-10-13T02:28:12.725Z,101885.34
2022-10-13T02:30:41.226Z,101883.28
2022-10-13T02:33:08.912Z,101872.72
2022-10-13T02:35:35.705Z,101884.41
2022-10-13T02:38:02.316Z,101880.88
2022-10-13T02:40:28.781Z,101882.03
2022-10-13T02:42:55.249Z,101882.47
2022-10-13T02:45:21.811Z,101874.19
2022-10-13T02:47:48.433Z,101869.56
2022-10-13T02:50:14.949Z,101867.75
2022-10-13T02:52:41.421Z,101872.56
2022-10-13T02:55:07.955Z,101856.22
2022-10-13T02:57:34.744Z,101859.06
2022-10-13T03:00:01.212Z,101849.66
2022-10-13T03:02:28.601Z,101834.59
2022-10-13T03:04:55.044Z,101828.16
2022-10-13T03:07:21.636Z,101836.63
2022-10-13T03:09:48.342Z,101843.19
2022-10-13T03:12:14.855Z,101845.81
2022-10-13T03:14:41.319Z,101855.88
2022-10-13T03:17:11.128Z,101855.75
2022-10-13T03:19:39.981Z,101847.44
2022-10-13T03:22:06.470Z,101858.66
2022-10-13T03:24:32.931Z,101850.84
2022-10-13T03:26:59.395Z,101848.25
2022-10-13T03:29:25.928Z,101856.06
2022-10-13T03:31:52.445Z,101841.69
2022-10-13T03:34:20.293Z,101837.81
2022-10-13T03:36:47.223Z,101840.25
2022-10-13T03:39:13.821Z,101824.38
2022-10-13T03:41:40.279Z,101827.88
2022-10-13T03:44:07.591Z,101825.50
2022-10-13T03:46:34.228Z,101814.28
2022-10-13T03:49:00.848Z,101829.81
2022-10-13T03:51:27.278Z,101821.50
2022-10-13T03:53:54.047Z,101822.97
2022-10-13T03:56:25.072Z,101824.91
2022-10-13T03:58:55.319Z,101821.72
2022-10-13T04:01:23.273Z,101824.44
2022-10-13T04:03:51.896Z,101809.72
2022-10-13T04:06:18.366Z,101812.53
2022-10-13T04:08:44.922Z,101809.03
2022-10-13T04:11:14.082Z,101819.28
2022-10-13T04:13:41.478Z,101814.13
2022-10-13T04:16:19.486Z,101804.53
2022-10-13T04:18:50.678Z,101798.31
2022-10-13T04:21:17.146Z,101782.78
2022-10-13T04:23:43.564Z,101772.34
2022-10-13T04:26:17.019Z,101772.94
2022-10-13T04:28:43.885Z,101769.88
2022-10-13T04:31:10.402Z,101779.97
2022-10-13T04:33:36.844Z,101784.47
2022-10-13T04:36:05.421Z,101788.34
2022-10-13T04:38:31.894Z,101789.81
2022-10-13T04:40:58.354Z,101799.88
2022-10-13T04:43:24.833Z,101795.09
2022-10-13T04:45:51.301Z,101795.59
2022-10-13T04:48:17.697Z,101796.72
2022-10-13T04:50:44.167Z,101796.72
2022-10-13T04:53:13.227Z,101795.09
2022-10-13T04:55:43.172Z,101791.28
2022-10-13T04:58:09.577Z,101785.16
2022-10-13T05:00:36.065Z,101781.75
2022-10-13T05:03:02.492Z,101791.84
2022-10-13T05:05:28.907Z,101806.13
2022-10-13T05:07:55.350Z,101811.91
2022-10-13T05:10:21.808Z,101801.03
2022-10-13T05:12:48.233Z,101804.53
2022-10-13T05:15:14.753Z,101802.59
2022-10-13T05:17:41.208Z,101814.63
2022-10-13T05:20:08.386Z,101809.03
2022-10-13T05:22:34.816Z,101802.81
2022-10-13T05:25:01.255Z,101801.22
2022-10-13T05:27:27.776Z,101807.09
2022-10-13T05:29:54.177Z,101809.50
2022-10-13T05:32:20.927Z,101802.16
2022-10-13T05:34:49.117Z,101797.97
2022-10-13T05:37:17.084Z,101805.78
2022-10-13T05:39:43.725Z,101803.06
2022-10-13T05:42:10.934Z,101793.31
2022-10-13T05:44:37.480Z,101791.84
2022-10-13T05:47:07.525Z,101802.28
2022-10-13T05:49:36.402Z,101804.19
2022-10-13T05:52:08.852Z,101796.03
2022-10-13T05:54:37.710Z,101792.53
2022-10-13T05:57:15.020Z,101791.38
2022-10-13T05:59:53.427Z,101800.00
2022-10-13T06:02:23.281Z,101790.13
2022-10-13T06:04:53.937Z,101784.03
2022-10-13T06:07:20.513Z,101777.91
2022-10-13T06:09:47.190Z,101752.28
2022-10-13T06:12:13.684Z,101762.19
2022-10-13T06:14:40.113Z,101752.53
2022-10-13T06:17:07.703Z,101752.53
2022-10-13T06:19:34.177Z,101757.97
2022-10-13T06:22:03.633Z,101760.25
2022-10-13T06:24:30.645Z,101761.72
2022-10-13T06:26:57.370Z,101753.56
2022-10-13T06:29:24.094Z,101759.34
2022-10-13T06:31:50.526Z,101753.22
2022-10-13T06:34:17.002Z,101736.22
2022-10-13T06:36:43.436Z,101730.13
2022-10-13T06:39:10.334Z,101755.72
2022-10-13T06:41:36.882Z,101759.00
2022-10-13T06:44:03.491Z,101765.09
2022-10-13T06:46:29.983Z,101772.69
2022-10-13T06:48:56.614Z,101774.94
2022-10-13T06:51:23.022Z,101776.38
2022-10-13T06:53:49.524Z,101770.63
2022-10-13T06:56:15.934Z,101776.38
2022-10-13T06:58:42.471Z,101778.47
2022-10-13T07:01:12.635Z,101783.13
2022-10-13T07:03:39.205Z,101774.28
2022-10-13T07:06:06.417Z,101779.38
2022-10-13T07:08:34.022Z,101770.41
2022-10-13T07:11:11.635Z,101771.66
2022-10-13T07:13:46.149Z,101772.63
2022-10-13T07:16:13.386Z,101763.66
2022-10-13T07:18:39.843Z,101770.34
2022-10-13T07:21:06.805Z,101766.84
2022-10-13T07:23:34.112Z,101773.06
2022-10-13T07:26:01.741Z,101771.94
2022-10-13T07:28:28.757Z,101767.75
2022-10-13T07:30:55.525Z,101760.84
2022-10-13T07:33:22.097Z,101767.19
2022-10-13T07:35:48.617Z,101762.22
2022-10-13T07:38:15.118Z,101763.94
2022-10-13T07:40:41.622Z,101765.63
2022-10-13T07:43:08.263Z,101765.34
2022-10-13T07:45:34.820Z,101763.50
2022-10-13T07:48:01.323Z,101766.34
2022-10-13T07:50:27.830Z,101768.75
2022-10-13T07:52:54.355Z,101763.09
2022-10-13T07:55:20.791Z,101767.38
2022-10-13T07:57:47.273Z,101767.88
2022-10-13T08:00:13.948Z,101773.44
2022-10-13T08:02:40.459Z,101775.00
2022-10-13T08:05:07.170Z,101774.66
2022-10-13T08:07:33.656Z,101780.13
2022-10-13T08:10:00.203Z,101771.28
2022-10-13T08:12:26.662Z,101772.88
2022-10-13T08:14:53.137Z,101768.22
2022-10-13T08:17:19.767Z,101766.31
2022-10-13T08:19:46.397Z,101770.38
2022-10-13T08:22:13.171Z,101768.91
2022-10-13T08:24:39.602Z,101774.81
2022-10-13T08:27:06.003Z,101772.34
2022-10-13T08:29:32.470Z,101770.41
2022-10-13T08:31:58.950Z,101776.19
2022-10-13T08:34:25.748Z,101778.13
2022-10-13T08:36:56.076Z,101778.78
2022-10-13T08:39:23.731Z,101788.88
2022-10-13T08:41:51.108Z,101786.16
2022-10-13T08:45:15.799Z,101780.84
2022-10-13T08:47:28.137Z,101772.44
2022-10-13T08:50:02.406Z,101777.47
2022-10-13T08:52:47.940Z,101781.13
2022-10-13T08:55:45.245Z,101776.47
2022-10-13T08:58:24.703Z,101773.41
2022-10-13T09:01:23.772Z,101769.53
2022-10-13T09:03:50.250Z,101757.97
2022-10-13T09:06:28.769Z,101754.31
2022-10-13T09:09:00.676Z,101748.84
2022-10-13T09:11:33.891Z,101752.72
2022-10-13T09:14:04.140Z,101755.34
2022-10-13T09:16:42.306Z,101752.97
2022-10-13T09:19:30.192Z,101756.66
2022-10-13T09:21:58.771Z,101753.94
2022-10-13T09:24:27.247Z,101760.66
2022-10-13T09:27:17.764Z,101755.22
2022-10-13T09:29:44.732Z,101756.78
2022-10-13T09:32:17.006Z,101754.50
2022-10-13T09:34:43.933Z,101747.22
2022-10-13T09:37:24.929Z,101741.53
2022-10-13T09:40:19.750Z,101748.78
2022-10-13T09:42:53.533Z,101757.06
2022-10-13T09:45:23.130Z,101753.31
2022-10-13T09:47:53.185Z,101750.00
2022-10-13T09:50:27.767Z,101746.13
2022-10-13T09:53:12.094Z,101755.13
2022-10-13T09:55:38.554Z,101737.84
2022-10-13T09:58:12.322Z,101745.22
2022-10-13T10:00:40.031Z,101741.03
2022-10-13T10:03:15.975Z,101739.28
2022-10-13T10:05:57.045Z,101743.28
2022-10-13T10:09:04.553Z,101737.19
2022-10-13T10:11:42.377Z,101736.16
2022-10-13T10:14:26.285Z,101731.16
2022-10-13T10:17:13.778Z,101732.41
2022-10-13T10:20:01.350Z,101725.44
2022-10-13T10:22:42.974Z,101731.00
2022-10-13T10:25:29.899Z,101727.22
2022-10-13T10:28:13.597Z,101724.91
2022-10-13T10:31:26.789Z,101726.22
2022-10-13T10:34:19.579Z,101715.22
2022-10-13T10:36:56.269Z,101714.16
2022-10-13T10:39:34.546Z,101718.59
2022-10-13T10:42:21.242Z,101716.28
2022-10-13T10:44:51.001Z,101720.34
2022-10-13T10:47:51.523Z,101720.84
2022-10-13T10:50:19.125Z,101713.72
2022-10-13T10:52:59.406Z,101713.09
2022-10-13T10:55:25.762Z,101727.09
2022-10-13T10:58:24.274Z,101718.13
2022-10-13T11:01:14.363Z,101716.44
2022-10-13T11:04:22.032Z,101718.38
2022-10-13T11:06:48.490Z,101711.22
2022-10-13T11:09:15.009Z,101703.69
2022-10-13T11:11:42.830Z,101700.97
2022-10-13T11:14:09.209Z,101703.03
2022-10-13T11:16:38.783Z,101696.75
2022-10-13T11:19:08.419Z,101698.09
2022-10-13T11:21:53.140Z,101698.53
2022-10-13T11:24:34.940Z,101690.19
2022-10-13T11:27:07.482Z,101693.38
2022-10-13T11:29:49.180Z,101690.75
2022-10-13T11:32:28.082Z,101693.91
2022-10-13T11:35:19.692Z,101681.84
2022-10-13T11:38:07.213Z,101683.69
2022-10-13T11:40:45.039Z,101680.16
2022-10-13T11:43:43.274Z,101683.50
2022-10-13T11:46:24.757Z,101675.59
2022-10-13T11:49:31.055Z,101678.88
2022-10-13T11:52:42.600Z,101681.50
2022-10-13T11:55:16.854Z,101676.69
2022-10-13T11:57:43.394Z,101675.78
2022-10-13T12:00:18.734Z,101666.78
2022-10-13T12:02:50.752Z,101662.56
2022-10-13T12:05:26.025Z,101670.13
2022-10-13T12:07:55.624Z,101663.78
2022-10-13T12:10:32.438Z,101666.53
2022-10-13T12:12:59.534Z,101661.06
2022-10-13T12:15:32.034Z,101665.13
2022-10-13T12:17:58.694Z,101663.19
2022-10-13T12:20:31.195Z,101667.94
2022-10-13T12:22:57.727Z,101663.88
2022-10-13T12:25:28.234Z,101666.09
2022-10-13T12:27:57.790Z,101652.09
2022-10-13T12:30:27.962Z,101662.72
2022-10-13T12:32:57.300Z,101663.53
2022-10-13T12:35:37.216Z,101656.16
2022-10-13T12:38:12.256Z,101653.06
2022-10-13T12:40:39.146Z,101646.13
2022-10-13T12:43:06.255Z,101645.31
2022-10-13T12:45:35.261Z,101646.03
2022-10-13T12:48:01.773Z,101643.09
2022-10-13T12:50:28.209Z,101644.94
2022-10-13T12:53:08.541Z,101641.53
2022-10-13T12:55:45.226Z,101646.34
2022-10-13T12:58:20.537Z,101641.25
2022-10-13T13:00:55.746Z,101645.13
2022-10-13T13:03:27.967Z,101643.69
2022-10-13T13:06:12.905Z,101640.19
2022-10-13T13:08:41.834Z,101644.13
2022-10-13T13:11:21.939Z,101640.63
2022-10-13T13:13:48.674Z,101645.03
2022-10-13T13:16:15.162Z,101648.13
2022-10-13T13:18:43.662Z,101639.38
2022-10-13T13:21:13.864Z,101648.81
2022-10-13T13:23:40.749Z,101640.72
2022-10-13T13:26:18.754Z,101640.47
2022-10-13T13:28:53.896Z,101634.66
2022-10-13T13:31:23.044Z,101635.78
2022-10-13T13:33:50.270Z,101632.09
2022-10-13T13:36:25.382Z,101628.00
2022-10-13T13:38:53.136Z,101633.38
2022-10-13T13:41:20.118Z,101622.28
2022-10-13T13:43:46.907Z,101617.09
2022-10-13T13:46:19.536Z,101621.06
2022-10-13T13:48:46.077Z,101613.38
2022-10-13T13:51:12.588Z,101609.00
2022-10-13T13:53:39.130Z,101610.75
2022-10-13T13:56:05.723Z,101603.28
2022-10-13T13:58:32.195Z,101605.38
2022-10-13T14:00:59.798Z,101610.56
2022-10-13T14:03:26.288Z,101602.19
2022-10-13T14:05:52.822Z,101595.50
2022-10-13T14:08:19.565Z,101599.66
2022-10-13T14:10:46.029Z,101595.34
2022-10-13T14:13:12.461Z,101592.63
2022-10-13T14:15:38.880Z,101593.41
2022-10-13T14:18:05.377Z,101600.44
2022-10-13T14:20:31.866Z,101593.31
2022-10-13T14:22:58.290Z,101594.03
2022-10-13T14:25:25.081Z,101593.16
2022-10-13T14:27:51.613Z,101596.13
2022-10-13T14:30:18.226Z,101599.75
2022-10-13T14:32:44.674Z,101595.53
2022-10-13T14:35:11.284Z,101590.13
2022-10-13T14:37:37.976Z,101576.50
2022-10-13T14:40:05.050Z,101583.88
2022-10-13T14:42:31.531Z,101579.94
2022-10-13T14:44:57.984Z,101573.94
2022-10-13T14:47:24.679Z,101574.22
2022-10-13T14:49:51.114Z,101570.25
2022-10-13T14:52:17.615Z,101579.94
2022-10-13T14:54:45.144Z,101574.81
2022-10-13T14:57:15.693Z,101574.38
2022-10-13T14:59:42.982Z,101570.50
2022-10-13T15:02:11.532Z,101570.75
2022-10-13T15:04:37.962Z,101569.59
2022-10-13T15:07:04.859Z,101572.78
2022-10-13T15:09:45.008Z,101567.34
2022-10-13T15:12:18.327Z,101562.41
2022-10-13T15:14:45.051Z,101569.81
2022-10-13T15:17:11.491Z,101560.03
2022-10-13T15:19:37.915Z,101563.56
2022-10-13T15:22:04.408Z,101561.16
2022-10-13T15:24:30.830Z,101563.88
2022-10-13T15:26:57.261Z,101558.78
2022-10-13T15:29:23.850Z,101553.69
2022-10-13T15:31:50.259Z,101556.75
2022-10-13T15:34:16.658Z,101550.06
2022-10-13T15:36:43.101Z,101555.53
2022-10-13T15:39:10.853Z,101552.78
2022-10-13T15:41:37.291Z,101557.91
2022-10-13T15:44:03.949Z,101561.78
2022-10-13T15:46:31.542Z,101555.53
2022-10-13T15:48:59.861Z,101550.41
2022-10-13T15:51:27.077Z,101563.28
2022-10-13T15:53:55.150Z,101556.25
2022-10-13T15:56:21.979Z,101556.66
2022-10-13T15:58:48.445Z,101565.66
2022-10-13T16:01:15.150Z,101554.28
2022-10-13T16:03:41.976Z,101557.75
2022-10-13T16:06:11.266Z,101549.88
2022-10-13T16:08:39.678Z,101546.72
2022-10-13T16:11:14.782Z,101546.72
2022-10-13T16:13:44.948Z,101547.50
2022-10-13T16:16:11.610Z,101549.88
2022-10-13T16:18:39.051Z,101542.16
2022-10-13T16:21:18.771Z,101537.81
2022-10-13T16:23:46.394Z,101531.94
2022-10-13T16:26:12.931Z,101530.72
2022-10-13T16:28:39.508Z,101534.47
2022-10-13T16:31:10.234Z,101534.47
2022-10-13T16:33:37.325Z,101537.50
2022-10-13T16:36:05.691Z,101536.69
2022-10-13T16:38:32.478Z,101546.03
2022-10-13T16:40:58.909Z,101544.78
2022-10-13T16:43:25.415Z,101545.25
2022-10-13T16:46:00.101Z,101539.78
2022-10-13T16:48:27.630Z,101542.84
2022-10-13T16:50:54.111Z,101540.81
2022-10-13T16:53:20.719Z,101532.56
2022-10-13T16:55:47.235Z,101543.47
2022-10-13T16:58:13.747Z,101551.19
2022-10-13T17:00:40.469Z,101552.69
2022-10-13T17:03:07.342Z,101548.38
2022-10-13T17:05:34.242Z,101554.09
2022-10-13T17:08:00.685Z,101551.72
2022-10-13T17:10:27.282Z,101549.34
2022-10-13T17:12:54.519Z,101555.22
2022-10-13T17:15:21.064Z,101557.97
2022-10-13T17:17:47.520Z,101559.09
2022-10-13T17:20:14.028Z,101564.19
2022-10-13T17:22:40.733Z,101573.19
2022-10-13T17:25:07.809Z,101570.00
2022-10-13T17:27:36.177Z,101566.84
2022-10-13T17:30:04.276Z,101576.63
2022-10-13T17:32:30.738Z,101578.91
2022-10-13T17:34:57.217Z,101582.00
2022-10-13T17:37:24.106Z,101577.69
2022-10-13T17:39:50.636Z,101586.19
2022-10-13T17:42:17.058Z,101581.44
2022-10-13T17:44:43.521Z,101590.69
2022-10-13T17:47:09.978Z,101582.66
2022-10-13T17:49:37.068Z,101594.03
2022-10-13T17:52:03.605Z,101598.38
2022-10-13T17:54:30.114Z,101592.84
2022-10-13T17:56:59.376Z,101595.44
2022-10-13T17:59:25.864Z,101603.53
2022-10-13T18:01:52.354Z,101607.75
2022-10-13T18:04:19.491Z,101597.88
2022-10-13T18:06:46.230Z,101609.22
2022-10-13T18:09:18.635Z,101603.09
2022-10-13T18:11:50.160Z,101607.78
2022-10-13T18:14:23.383Z,101612.91
2022-10-13T18:16:51.151Z,101612.22
2022-10-13T18:19:18.054Z,101623.47
2022-10-13T18:21:44.549Z,101626.75
2022-10-13T18:24:11.728Z,101631.25
2022-10-13T18:26:38.600Z,101631.59
2022-10-13T18:29:07.334Z,101625.59
2022-10-13T18:31:36.157Z,101629.00
2022-10-13T18:34:06.421Z,101627.75
2022-10-13T18:36:38.532Z,101641.22
2022-10-13T18:39:26.395Z,101646.13
2022-10-13T18:41:54.961Z,101642.16
2022-10-13T18:44:23.164Z,101651.13
2022-10-13T18:46:51.121Z,101655.06
2022-10-13T18:49:19.173Z,101654.63
2022-10-13T18:51:46.822Z,101656.88
2022-10-13T18:54:13.551Z,101660.28
2022-10-13T18:56:40.094Z,101664.03
2022-10-13T18:59:08.352Z,101668.66
2022-10-13T19:01:36.696Z,101671.38
2022-10-13T19:04:04.465Z,101681.00
2022-10-13T19:06:32.411Z,101670.13
2022-10-13T19:09:04.832Z,101677.03
2022-10-13T19:11:32.415Z,101668.09
2022-10-13T19:14:00.603Z,101668.53
2022-10-13T19:16:29.318Z,101668.88
2022-10-13T19:18:56.301Z,101666.25
2022-10-13T19:21:24.443Z,101659.44
2022-10-13T19:23:51.607Z,101671.00
2022-10-13T19:26:21.627Z,101668.59
2022-10-13T19:28:48.203Z,101672.47
2022-10-13T19:31:21.257Z,101671.53
2022-10-13T19:33:49.852Z,101668.25
2022-10-13T19:36:38.832Z,101666.31
2022-10-13T19:39:11.557Z,101665.63
2022-10-13T19:41:38.310Z,101672.66
2022-10-13T19:44:04.972Z,101666.88
2022-10-13T19:46:32.724Z,101666.09
2022-10-13T19:48:59.229Z,101668.34
2022-10-13T19:51:25.683Z,101673.53
2022-10-13T19:53:52.127Z,101680.09
2022-10-13T19:56:21.289Z,101672.28
2022-10-13T19:58:47.879Z,101671.75
2022-10-13T20:01:14.435Z,101675.25
2022-10-13T20:03:40.896Z,101679.13
2022-10-13T20:06:07.430Z,101675.91
2022-10-13T20:08:33.954Z,101673.06
2022-10-13T20:11:06.133Z,101681.44
2022-10-13T20:13:32.552Z,101670.69
2022-10-13T20:15:58.969Z,101679.13
2022-10-13T20:18:25.389Z,101684.41
2022-10-13T20:20:51.882Z,101680.69
2022-10-13T20:23:18.290Z,101685.47
2022-10-13T20:25:44.994Z,101689.78
2022-10-13T20:28:11.431Z,101690.44
2022-10-13T20:30:39.666Z,101687.72
2022-10-13T20:33:06.189Z,101692.81
2022-10-13T20:35:32.696Z,101688.19
2022-10-13T20:37:59.153Z,101699.31
2022-10-13T20:40:25.693Z,101688.09
2022-10-13T20:42:52.754Z,101686.50
2022-10-13T20:45:19.434Z,101693.53
2022-10-13T20:47:46.908Z,101695.47
2022-10-13T20:50:13.952Z,101700.13
2022-10-13T20:52:40.361Z,101701.34
2022-10-13T20:55:07.095Z,101698.72
2022-10-13T20:57:33.583Z,101702.75
2022-10-13T21:00:00.044Z,101703.78
2022-10-13T21:02:26.514Z,101703.31
2022-10-13T21:04:53.000Z,101715.00
2022-10-13T21:07:19.806Z,101710.00
2022-10-13T21:09:50.203Z,101715.78
2022-10-13T21:12:19.289Z,101713.41
2022-10-13T21:14:45.747Z,101711.47
2022-10-13T21:17:12.216Z,101705.56
2022-10-13T21:19:39.835Z,101715.53
2022-10-13T21:22:06.264Z,101715.66
2022-10-13T21:24:32.777Z,101713.72
2022-10-13T21:26:59.202Z,101712.13
2022-10-13T21:29:25.683Z,101719.16
2022-10-13T21:31:52.557Z,101726.75
2022-10-13T21:34:19.062Z,101717.97
2022-10-13T21:36:45.714Z,101713.78
2022-10-13T21:39:12.251Z,101700.88
2022-10-13T21:41:38.939Z,101700.16
2022-10-13T21:44:05.353Z,101703.13
2022-10-13T21:46:34.093Z,101700.75
2022-10-13T21:49:04.623Z,101701.09
2022-10-13T21:51:34.399Z,101699.28
2022-10-13T21:54:03.641Z,101696.16
2022-10-13T21:56:30.814Z,101698.59
2022-10-13T21:58:57.330Z,101698.78
2022-10-13T22:01:24.469Z,101699.59
2022-10-13T22:03:56.724Z,101694.63
2022-10-13T22:06:24.225Z,101694.00
2022-10-13T22:08:52.596Z,101688.25
2022-10-13T22:11:20.193Z,101690.38
2022-10-13T22:13:46.781Z,101678.28
2022-10-13T22:16:16.759Z,101675.06
2022-10-13T22:18:43.838Z,101679.34
2022-10-13T22:21:20.207Z,101678.09
2022-10-13T22:23:47.717Z,101674.13
2022-10-13T22:26:15.730Z,101673.06
2022-10-13T22:28:42.745Z,101669.88
2022-10-13T22:31:11.652Z,101659.59
2022-10-13T22:33:41.534Z,101656.88
2022-10-13T22:36:16.047Z,101666.03
2022-10-13T22:38:43.779Z,101660.78
2022-10-13T22:41:11.010Z,101656.94
2022-10-13T22:43:37.589Z,101659.22
2022-10-13T22:46:04.365Z,101656.50
2022-10-13T22:48:31.042Z,101655.22
2022-10-13T22:50:57.692Z,101653.81
2022-10-13T22:53:24.169Z,101647.78
2022-10-13T22:55:50.615Z,101653.88
2022-10-13T22:58:17.094Z,101651.13
2022-10-13T23:00:43.508Z,101649.19
2022-10-13T23:03:13.278Z,101650.78
2022-10-13T23:05:45.978Z,101646.47
2022-10-13T23:08:12.538Z,101650.31
2022-10-13T23:10:39.026Z,101649.06
2022-10-13T23:13:06.226Z,101645.28
2022-10-13T23:15:32.917Z,101638.91
2022-10-13T23:17:59.349Z,101644.03
2022-10-13T23:20:25.819Z,101646.06
2022-10-13T23:22:52.300Z,101649.44
2022-10-13T23:25:18.769Z,101653.25
2022-10-13T23:27:45.200Z,101642.22
2022-10-13T23:30:12.378Z,101638.25
2022-10-13T23:32:38.875Z,101642.28
2022-10-13T23:35:05.703Z,101630.50
2022-10-13T23:37:32.414Z,101611.63
2022-10-13T23:39:58.899Z,101625.19
2022-10-13T23:42:25.329Z,101625.81
2022-10-13T23:44:51.769Z,101634.41
2022-10-13T23:47:18.418Z,101626.72
2022-10-13T23:49:45.540Z,101620.50
2022-10-13T23:52:12.012Z,101625.66
2022-10-13T23:54:38.445Z,101626.00
2022-10-13T23:57:04.903Z,101625.94
2022-10-13T23:59:31.354Z,101628.19
